Atlantida Azul — CSYG2 — position and weather

sailwx.info

Track history (hours):
 
Tides and Currents Weather Stations Pressure Air Temp Water Temp Dewpoint Dewpoint Depression Visibility Wind Speed Wind Dir Waves Ship Positions

Atlantida Azul

Last reported at 2014-Oct-29 16:33 UTC. Time now 2014-Oct-30 13:04 UTC.
Position N 37°56' W 008°51'.

Length 16 m.

Type: Pilot. MMSI: 263672880.

Date/timePositionNaut miles runAvg speedWind from/ knotsBaromVisibWave heightAir tempDewpointWater temp
2014-Oct-29 16:33N 37°56' W 008°51'0 0.0
2014-Oct-28 16:13N 37°56' W 008°51'0 0.0
2014-Oct-27 18:30N 37°56' W 008°51'0 0.1
2014-Oct-27 14:33N 37°56' W 008°51'0 0.2
2014-Oct-27 12:31N 37°56' W 008°51'1 0.6
2014-Oct-27 10:33N 37°56' W 008°52'1 0.4
2014-Oct-27 07:18N 37°55' W 008°51'0 0.4
2014-Oct-27 06:06N 37°56' W 008°51'3 0.3
2014-Oct-26 17:33N 37°53' W 008°54'3 3.3
2014-Oct-26 16:33N 37°56' W 008°51'1 0.5
2014-Oct-26 15:33N 37°56' W 008°52'1 0.1
2014-Oct-25 14:32N 37°56' W 008°53'1 0.7
2014-Oct-25 12:33N 37°57' W 008°52'3 1.3
2014-Oct-25 10:30N 37°54' W 008°51'2 0.9
2014-Oct-25 08:13N 37°56' W 008°51'0 0.0
2014-Oct-23 18:24N 37°56' W 008°51'1 0.6
2014-Oct-23 17:33N 37°56' W 008°51'1 0.5
2014-Oct-23 16:33N 37°56' W 008°51'0 0.0
2014-Oct-23 15:33N 37°56' W 008°51'0 0.0
2014-Oct-23 14:32N 37°56' W 008°51'0 0.0
2014-Oct-23 13:31N 37°56' W 008°51'0 0.0
2014-Oct-23 12:32N 37°56' W 008°51'0 0.0
2014-Oct-23 11:31N 37°56' W 008°51'0 0.0
2014-Oct-23 10:31N 37°56' W 008°51'0 0.0
2014-Oct-23 09:28N 37°56' W 008°51'0 0.0
2014-Oct-23 08:31N 37°56' W 008°51'0 0.0
2014-Oct-23 07:31N 37°56' W 008°51'0 0.0
2014-Oct-23 06:31N 37°56' W 008°51'0 0.0
2014-Oct-23 05:31N 37°56' W 008°51'0 0.0
2014-Oct-23 04:31N 37°56' W 008°51'0 0.0
2014-Oct-23 03:31N 37°56' W 008°51'0 0.0
2014-Oct-23 02:32N 37°56' W 008°51'0 0.0
2014-Oct-23 01:33N 37°56' W 008°51'0 0.0
2014-Oct-23 00:32N 37°56' W 008°51'0 0.0
2014-Oct-22 23:33N 37°56' W 008°51'0 0.0
2014-Oct-22 22:32N 37°56' W 008°51'0 0.0
2014-Oct-22 21:29N 37°56' W 008°51'0 0.0
2014-Oct-22 20:28N 37°56' W 008°51'0 0.0
2014-Oct-22 19:32N 37°56' W 008°51'0 0.0
2014-Oct-22 18:29N 37°56' W 008°51'0 0.0
2014-Oct-22 17:32N 37°56' W 008°51'0 0.0
2014-Oct-22 16:31N 37°56' W 008°51'0 0.0
2014-Oct-22 15:31N 37°56' W 008°51'0 0.0
2014-Oct-22 14:31N 37°56' W 008°51'0 0.0
2014-Oct-22 13:32N 37°56' W 008°51'0 0.0
2014-Oct-22 11:31N 37°56' W 008°51'0 0.0
2014-Oct-22 10:31N 37°56' W 008°51'0 0.0
2014-Oct-22 09:31N 37°56' W 008°51'0 0.0
2014-Oct-22 08:31N 37°56' W 008°51'0 0.0
2014-Oct-21 16:08N 37°56' W 008°51'0 0.0
2014-Oct-21 15:31N 37°56' W 008°51'0 0.0
2014-Oct-21 14:31N 37°56' W 008°51'0 0.0
2014-Oct-21 13:31N 37°56' W 008°51'0 0.0
2014-Oct-21 12:31N 37°56' W 008°51'0 0.0
2014-Oct-21 11:31N 37°56' W 008°51'0 0.0
2014-Oct-21 10:31N 37°56' W 008°51'0 0.0
2014-Oct-21 09:31N 37°56' W 008°51'0 0.0
2014-Oct-20 17:06N 37°56' W 008°51'0 0.0
2014-Oct-20 16:33N 37°56' W 008°51'0 0.0
2014-Oct-20 15:33N 37°56' W 008°51'0 0.0
2014-Oct-20 14:33N 37°56' W 008°51'0 0.0
2014-Oct-20 13:33N 37°56' W 008°51'0 0.0
2014-Oct-20 12:33N 37°56' W 008°51'0 0.0
2014-Oct-20 11:30N 37°56' W 008°51'0 0.0
2014-Oct-20 10:33N 37°56' W 008°51'0 0.0
2014-Oct-20 09:33N 37°56' W 008°51'0 0.0
2014-Oct-20 08:33N 37°56' W 008°51'0 0.0
2014-Oct-20 07:33N 37°56' W 008°51'0 0.0
2014-Oct-20 06:33N 37°56' W 008°51'0 0.0
2014-Oct-20 05:33N 37°56' W 008°51'0 0.0
2014-Oct-20 04:33N 37°56' W 008°51'0 0.0
2014-Oct-20 03:33N 37°56' W 008°51'0 0.0
2014-Oct-20 02:33N 37°56' W 008°51'0 0.0
2014-Oct-20 01:33N 37°56' W 008°51'0 0.0
2014-Oct-20 00:33N 37°56' W 008°51'0 0.0
2014-Oct-19 23:33N 37°56' W 008°51'0 0.0
2014-Oct-19 22:33N 37°56' W 008°51'0 0.0
2014-Oct-19 21:33N 37°56' W 008°51'0 0.0
2014-Oct-19 20:33N 37°56' W 008°51'0 0.0
2014-Oct-19 19:33N 37°56' W 008°51'0 0.0
2014-Oct-19 18:33N 37°56' W 008°51'0 0.0
2014-Oct-19 17:30N 37°56' W 008°51'0 0.0
2014-Oct-19 16:33N 37°56' W 008°51'  
Track history (hours):
 
Tides and Currents Weather Stations Pressure Air Temp Water Temp Dewpoint Dewpoint Depression Visibility Wind Speed Wind Dir Waves Ship Positions

Atlantida Azul

Last reported at 2014-Oct-29 16:33 UTC. Time now 2014-Oct-30 13:04 UTC.
Position N 37°56' W 008°51'.

Length 16 m.

Type: Pilot. MMSI: 263672880.

Date/timePositionNaut miles runAvg speedWind from/ knotsBaromVisibWave heightAir tempDewpointWater temp
2014-Oct-29 16:33N 37°56' W 008°51'0 0.0
2014-Oct-28 16:13N 37°56' W 008°51'0 0.0
2014-Oct-27 18:30N 37°56' W 008°51'0 0.1
2014-Oct-27 14:33N 37°56' W 008°51'0 0.2
2014-Oct-27 12:31N 37°56' W 008°51'1 0.6
2014-Oct-27 10:33N 37°56' W 008°52'1 0.4
2014-Oct-27 07:18N 37°55' W 008°51'0 0.4
2014-Oct-27 06:06N 37°56' W 008°51'3 0.3
2014-Oct-26 17:33N 37°53' W 008°54'3 3.3
2014-Oct-26 16:33N 37°56' W 008°51'1 0.5
2014-Oct-26 15:33N 37°56' W 008°52'1 0.1
2014-Oct-25 14:32N 37°56' W 008°53'1 0.7
2014-Oct-25 12:33N 37°57' W 008°52'3 1.3
2014-Oct-25 10:30N 37°54' W 008°51'2 0.9
2014-Oct-25 08:13N 37°56' W 008°51'0 0.0
2014-Oct-23 18:24N 37°56' W 008°51'1 0.6
2014-Oct-23 17:33N 37°56' W 008°51'1 0.5
2014-Oct-23 16:33N 37°56' W 008°51'0 0.0
2014-Oct-23 15:33N 37°56' W 008°51'0 0.0
2014-Oct-23 14:32N 37°56' W 008°51'0 0.0
2014-Oct-23 13:31N 37°56' W 008°51'0 0.0
2014-Oct-23 12:32N 37°56' W 008°51'0 0.0
2014-Oct-23 11:31N 37°56' W 008°51'0 0.0
2014-Oct-23 10:31N 37°56' W 008°51'0 0.0
2014-Oct-23 09:28N 37°56' W 008°51'0 0.0
2014-Oct-23 08:31N 37°56' W 008°51'0 0.0
2014-Oct-23 07:31N 37°56' W 008°51'0 0.0
2014-Oct-23 06:31N 37°56' W 008°51'0 0.0
2014-Oct-23 05:31N 37°56' W 008°51'0 0.0
2014-Oct-23 04:31N 37°56' W 008°51'0 0.0
2014-Oct-23 03:31N 37°56' W 008°51'0 0.0
2014-Oct-23 02:32N 37°56' W 008°51'0 0.0
2014-Oct-23 01:33N 37°56' W 008°51'0 0.0
2014-Oct-23 00:32N 37°56' W 008°51'0 0.0
2014-Oct-22 23:33N 37°56' W 008°51'0 0.0
2014-Oct-22 22:32N 37°56' W 008°51'0 0.0
2014-Oct-22 21:29N 37°56' W 008°51'0 0.0
2014-Oct-22 20:28N 37°56' W 008°51'0 0.0
2014-Oct-22 19:32N 37°56' W 008°51'0 0.0
2014-Oct-22 18:29N 37°56' W 008°51'0 0.0
2014-Oct-22 17:32N 37°56' W 008°51'0 0.0
2014-Oct-22 16:31N 37°56' W 008°51'0 0.0
2014-Oct-22 15:31N 37°56' W 008°51'0 0.0
2014-Oct-22 14:31N 37°56' W 008°51'0 0.0
2014-Oct-22 13:32N 37°56' W 008°51'0 0.0
2014-Oct-22 11:31N 37°56' W 008°51'0 0.0
2014-Oct-22 10:31N 37°56' W 008°51'0 0.0
2014-Oct-22 09:31N 37°56' W 008°51'0 0.0
2014-Oct-22 08:31N 37°56' W 008°51'0 0.0
2014-Oct-21 16:08N 37°56' W 008°51'0 0.0
2014-Oct-21 15:31N 37°56' W 008°51'0 0.0
2014-Oct-21 14:31N 37°56' W 008°51'0 0.0
2014-Oct-21 13:31N 37°56' W 008°51'0 0.0
2014-Oct-21 12:31N 37°56' W 008°51'0 0.0
2014-Oct-21 11:31N 37°56' W 008°51'0 0.0
2014-Oct-21 10:31N 37°56' W 008°51'0 0.0
2014-Oct-21 09:31N 37°56' W 008°51'0 0.0
2014-Oct-20 17:06N 37°56' W 008°51'0 0.0
2014-Oct-20 16:33N 37°56' W 008°51'0 0.0
2014-Oct-20 15:33N 37°56' W 008°51'0 0.0
2014-Oct-20 14:33N 37°56' W 008°51'0 0.0
2014-Oct-20 13:33N 37°56' W 008°51'0 0.0
2014-Oct-20 12:33N 37°56' W 008°51'0 0.0
2014-Oct-20 11:30N 37°56' W 008°51'0 0.0
2014-Oct-20 10:33N 37°56' W 008°51'0 0.0
2014-Oct-20 09:33N 37°56' W 008°51'0 0.0
2014-Oct-20 08:33N 37°56' W 008°51'0 0.0
2014-Oct-20 07:33N 37°56' W 008°51'0 0.0
2014-Oct-20 06:33N 37°56' W 008°51'0 0.0
2014-Oct-20 05:33N 37°56' W 008°51'0 0.0
2014-Oct-20 04:33N 37°56' W 008°51'0 0.0
2014-Oct-20 03:33N 37°56' W 008°51'0 0.0
2014-Oct-20 02:33N 37°56' W 008°51'0 0.0
2014-Oct-20 01:33N 37°56' W 008°51'0 0.0
2014-Oct-20 00:33N 37°56' W 008°51'0 0.0
2014-Oct-19 23:33N 37°56' W 008°51'0 0.0
2014-Oct-19 22:33N 37°56' W 008°51'0 0.0
2014-Oct-19 21:33N 37°56' W 008°51'0 0.0
2014-Oct-19 20:33N 37°56' W 008°51'0 0.0
2014-Oct-19 19:33N 37°56' W 008°51'0 0.0
2014-Oct-19 18:33N 37°56' W 008°51'0 0.0
2014-Oct-19 17:30N 37°56' W 008°51'0 0.0
2014-Oct-19 16:33N 37°56' W 008°51'  

Dump ship's entire track history